Гумрак

Карта отелей и гостиниц, располагающихся рядом с аэропортом Гумрак :

Гумрак
Волгоград
Волгоградская область 48° 46' 58.9692" N, 44° 20' 39.6708" E
Код аэродрома ИКАО
URWW
Код аэродрома RU
УРВВ
Координаты
N48.78305° E044.34435°
Превышение над уровнем моря
145
Основная полоса
06/24
Курс магнитный
055,2/235,2
Длина основной ВПП
2800
Ширина основной ВПП
45
Покрытие основной ВПП
Твёрдое (асфальтобетон)
Освещение ВПП
Постоянное
Тип: 
Аэродром
Класс аэродрома: 
Международный
Принадлежность: 
ГА
Статус: 
Действующий
Страна: 
Россия
Регион: 
Волгоградская область
Город: 
Волгоград
Погода: 

Авиационная погода в Волгограде

Регион: 
Погода METAR: 
URWW 051100Z 34004MPS 300V030 CAVOK 30/08 Q1016 R06/010070 NOSIG
Время наблюдения
2021-08-05T11:00:00Z
Температура C
30.0
Точка росы
8.0
Направление ветра
340
Скорость ветра (узлы)
8
Метео видимость
6.21
Явления погоды
Условия полета
VFR
Аэропорт подробнее: 

Найти трансфер

С помощью этой формы Вы можете найти трансфер из аэропорта Гумрак в город, аэропорт или вокзал:

Карта места

Javascript is required to view this map.

Погода в аэропортах:

Авиационная погода в Хомутово

Регион: 
Погода METAR: 
UHSS 051100Z 35004MPS 9000 -SHRA BKN008 BKN012CB 18/18 Q1006 R01/70D NOSIG RMK MT OBSC QFE754/1005
Время наблюдения
2021-08-05T11:00:00Z
Температура C
18.0
Точка росы
18.0
Направление ветра
350
Скорость ветра (узлы)
8
Метео видимость
5.59
Явления погоды
-SHRA
Условия полета
IFR
Аэропорт подробнее: 

Авиационная погода в Пскове

Регион: 
Погода METAR: 
ULOO 051100Z 02002MPS 330V070 9999 -SHRA FEW038CB 15/11 Q1015 R01/090070 NOSIG RMK QFE757
Время наблюдения
2021-08-05T11:00:00Z
Температура C
15.0
Точка росы
11.0
Направление ветра
20
Скорость ветра (узлы)
4
Метео видимость
6.21
Явления погоды
-SHRA
Условия полета
VFR

Авиационная погода в Кадале

Регион: 
Погода METAR: 
UIAA 051100Z 23003MPS 2800 FU FEW033CB 20/14 Q1002 R29/CLRD70 NOSIG RMK QFE693/0925
Время наблюдения
2021-08-05T11:00:00Z
Температура C
20.0
Точка росы
14.0
Направление ветра
230
Скорость ветра (узлы)
6
Метео видимость
1.74
Явления погоды
FU
Условия полета
IFR
Аэропорт подробнее: 

Авиационная погода в Вадсё

Регион: 
Погода METAR: 
ENVD 051050Z 25006KT 9999 VCSH BKN050 14/09 Q1010
Время наблюдения
2021-08-05T10:50:00Z
Температура C
14.0
Точка росы
9.0
Направление ветра
250
Скорость ветра (узлы)
6
Метео видимость
6.21
Явления погоды
VCSH
Условия полета
VFR